createdAt,value
2017-07-02T09:36:28.859Z,72.56
2017-07-02T09:37:27.853Z,72.75
2017-07-02T09:38:27.854Z,72.27
2017-07-02T09:39:27.850Z,71.6
2017-07-02T09:40:27.853Z,71.5
2017-07-02T09:41:28.656Z,71.22
2017-07-02T09:42:27.857Z,71.7
2017-07-02T09:43:27.864Z,71.6
2017-07-02T09:44:27.871Z,71.85
2017-07-02T09:45:27.556Z,72.24
2017-07-02T09:46:27.871Z,72.63
2017-07-02T09:47:27.873Z,72.63
2017-07-02T09:48:27.876Z,71.76
2017-07-02T09:49:27.879Z,71.18
2017-07-02T09:50:27.885Z,71.56
2017-07-02T09:51:27.577Z,71.95
2017-07-02T09:52:27.892Z,71.85
2017-07-02T09:53:27.582Z,72.72
2017-07-02T09:54:27.906Z,72.72
2017-07-02T09:55:27.594Z,71.76
2017-07-02T09:56:27.601Z,71.85
2017-07-02T09:57:27.922Z,71.56
2017-07-02T09:58:27.913Z,71.56
2017-07-02T09:59:27.920Z,71.95
2017-07-02T10:00:27.944Z,72.59
2017-07-02T10:01:27.927Z,73.01
2017-07-02T10:02:27.834Z,72.81
2017-07-02T10:03:27.956Z,72.63
2017-07-02T10:04:27.949Z,72.33
2017-07-02T10:05:27.975Z,72.43
2017-07-02T10:06:27.950Z,72.43
2017-07-02T10:07:27.976Z,72.72
2017-07-02T10:08:27.961Z,72.53
2017-07-02T10:09:27.972Z,72.53
2017-07-02T10:10:27.975Z,72.63
2017-07-02T10:11:27.973Z,72.91
2017-07-02T10:12:27.979Z,71.95
2017-07-02T10:13:27.983Z,72.05
2017-07-02T10:14:27.984Z,71.66
2017-07-02T10:15:27.991Z,71.5
2017-07-02T10:16:27.681Z,70.6
2017-07-02T10:17:28.001Z,71.12
2017-07-02T10:18:28.013Z,70.7
2017-07-02T10:19:28.013Z,71.22
2017-07-02T10:20:28.016Z,71.56
2017-07-02T10:21:28.015Z,71.08
2017-07-02T10:22:29.978Z,71.37
2017-07-02T10:23:28.660Z,71.85
2017-07-02T10:24:28.033Z,71.66
2017-07-02T10:25:27.722Z,70.98
2017-07-02T10:26:28.042Z,71.02
2017-07-02T10:27:28.044Z,70.44
2017-07-02T10:28:28.051Z,69.57
2017-07-02T10:29:28.052Z,69.87
2017-07-02T10:30:28.058Z,70.15
2017-07-02T10:31:27.750Z,69.87
2017-07-02T10:32:27.760Z,69.96
2017-07-02T10:33:28.073Z,69.42
2017-07-02T10:34:28.078Z,69.32
2017-07-02T10:35:28.083Z,69.23
2017-07-02T10:36:27.777Z,68.97
2017-07-02T10:37:30.993Z,68.19
2017-07-02T10:38:28.094Z,67.91
2017-07-02T10:39:27.792Z,67.62
2017-07-02T10:40:28.108Z,67.65
2017-07-02T10:41:28.116Z,67.07
2017-07-02T10:42:28.115Z,66.49
2017-07-02T10:43:27.810Z,66.11
2017-07-02T10:44:28.131Z,66.4
2017-07-02T10:45:27.837Z,66.3
2017-07-02T10:46:28.145Z,66.78
2017-07-02T10:47:28.148Z,67.04
2017-07-02T10:48:28.156Z,66.3
2017-07-02T10:49:28.157Z,66.11
2017-07-02T10:50:28.157Z,65.82
2017-07-02T10:51:27.856Z,66.4
2017-07-02T10:52:28.167Z,65.05
2017-07-02T10:53:28.182Z,65.14
2017-07-02T10:54:28.181Z,64.59
2017-07-02T10:55:28.187Z,64.21
2017-07-02T10:56:28.191Z,63.08
2017-07-02T10:57:28.212Z,62.89
2017-07-02T10:58:28.212Z,62.4
2017-07-02T10:59:28.210Z,61.63
2017-07-02T11:00:28.215Z,63.08
2017-07-02T11:01:27.920Z,62.7
2017-07-02T11:02:28.232Z,62.24
2017-07-02T11:03:28.233Z,61.66
2017-07-02T11:04:28.295Z,60.89
2017-07-02T11:05:28.243Z,60.31
2017-07-02T11:06:28.250Z,60.31
2017-07-02T11:07:28.255Z,60.57
2017-07-02T11:08:28.263Z,61.15
2017-07-02T11:09:28.270Z,62.4
2017-07-02T11:10:28.270Z,62.66
2017-07-02T11:11:28.288Z,62.86
2017-07-02T11:12:28.626Z,61.02
2017-07-02T11:13:28.313Z,60.86
2017-07-02T11:14:28.554Z,59.6
2017-07-02T11:15:28.301Z,58.83
2017-07-02T11:16:28.331Z,58.64
2017-07-02T11:17:28.317Z,58.28
2017-07-02T11:18:28.322Z,58.47
2017-07-02T11:19:28.324Z,58.45
2017-07-02T11:20:28.331Z,59.12
2017-07-02T11:21:28.342Z,60.16
2017-07-02T11:22:28.377Z,60.93
2017-07-02T11:23:28.411Z,60.54
2017-07-02T11:24:28.047Z,60.93
2017-07-02T11:25:28.372Z,61.51
2017-07-02T11:26:28.391Z,62.15
2017-07-02T11:27:28.421Z,62.25
2017-07-02T11:28:28.434Z,63.02
2017-07-02T11:29:28.375Z,62.54
2017-07-02T11:30:28.414Z,63.12
2017-07-02T11:31:28.388Z,63.02
2017-07-02T11:32:28.397Z,62.92
2017-07-02T11:33:28.460Z,62.82
2017-07-02T11:34:28.423Z,63.12
2017-07-02T11:35:28.427Z,62.82
2017-07-02T11:36:28.424Z,63.5
2017-07-02T11:37:28.449Z,64.34
2017-07-02T11:38:29.761Z,64.63
2017-07-02T11:39:28.119Z,64.72
2017-07-02T11:40:28.448Z,64.63
2017-07-02T11:41:28.450Z,64.34
2017-07-02T11:42:28.443Z,62.99
2017-07-02T11:43:28.464Z,63.57
2017-07-02T11:44:28.470Z,63.37
2017-07-02T11:45:28.462Z,63.85
2017-07-02T11:46:28.464Z,63.95
2017-07-02T11:47:28.475Z,64.31
2017-07-02T11:48:28.488Z,63.92
2017-07-02T11:49:28.504Z,64.4
2017-07-02T11:50:28.177Z,63.47
2017-07-02T11:51:28.490Z,62.79
2017-07-02T11:52:28.496Z,62.99
2017-07-02T11:53:28.603Z,62.38
2017-07-02T11:54:28.502Z,62.38
2017-07-02T11:55:54.218Z,63.24
2017-07-02T11:56:28.511Z,63.54
2017-07-02T11:57:28.562Z,63.82
2017-07-02T11:58:28.589Z,64.11
2017-07-02T11:59:28.557Z,64.11
2017-07-02T12:00:28.211Z,64.5
2017-07-02T12:01:28.541Z,64.79
2017-07-02T12:02:28.565Z,64.4
2017-07-02T12:03:28.249Z,65.08
2017-07-02T12:04:28.549Z,63.24
2017-07-02T12:05:28.563Z,62.7
2017-07-02T12:06:28.594Z,62.02
2017-07-02T12:07:28.561Z,61.06
2017-07-02T12:08:30.914Z,60.48
2017-07-02T12:09:28.566Z,58.17
2017-07-02T12:10:28.612Z,57.32
2017-07-02T12:11:28.649Z,57.62
2017-07-02T12:12:28.636Z,56.84
2017-07-02T12:13:28.596Z,53.39
2017-07-02T12:14:28.619Z,53.49
2017-07-02T12:15:28.598Z,53.69
2017-07-02T12:16:28.613Z,53.88
2017-07-02T12:17:28.612Z,53.2
2017-07-02T12:18:28.626Z,52.62
2017-07-02T12:19:28.620Z,53.49
2017-07-02T12:20:28.650Z,53.52
2017-07-02T12:21:28.624Z,51.68
2017-07-02T12:22:28.634Z,51.1
2017-07-02T12:23:28.877Z,50.62
2017-07-02T12:24:28.647Z,49.85
2017-07-02T12:25:28.682Z,50.33
2017-07-02T12:26:28.658Z,48.49
2017-07-02T12:27:28.341Z,47.81
2017-07-02T12:28:28.657Z,48.49
2017-07-02T12:29:28.666Z,48.42
2017-07-02T12:30:28.679Z,48.13
2017-07-02T12:31:28.673Z,47.16
2017-07-02T12:32:28.683Z,47.19
2017-07-02T12:33:28.688Z,45.93
2017-07-02T12:34:28.707Z,44.87
2017-07-02T12:35:28.698Z,45.28
2017-07-02T12:36:28.703Z,45.18
2017-07-02T12:37:28.706Z,45.66
2017-07-02T12:38:28.718Z,46.44
2017-07-02T12:39:28.725Z,45.47
2017-07-02T12:40:28.729Z,45.57
2017-07-02T12:41:28.734Z,45.86
2017-07-02T12:42:28.739Z,44.6
2017-07-02T12:43:28.741Z,44.98
2017-07-02T12:44:28.747Z,46.25
2017-07-02T12:45:28.753Z,46.53
2017-07-02T12:46:28.762Z,46.92
2017-07-02T12:47:28.773Z,46.92
2017-07-02T12:48:28.778Z,47.41
2017-07-02T12:49:28.485Z,47.5
2017-07-02T12:50:28.783Z,48.25
2017-07-02T12:51:28.493Z,49.32
2017-07-02T12:52:28.794Z,49.58
2017-07-02T12:53:28.798Z,50.65
2017-07-02T12:54:28.817Z,50.74
2017-07-02T12:55:28.820Z,50.93
2017-07-02T12:56:28.820Z,51.23
2017-07-02T12:57:28.821Z,51.32
2017-07-02T12:58:28.829Z,52.07
2017-07-02T12:59:28.845Z,53.13
2017-07-02T13:00:28.838Z,53.23
2017-07-02T13:01:28.847Z,53.52
2017-07-02T13:02:28.852Z,53.71
2017-07-02T13:03:28.866Z,52.55
2017-07-02T13:04:28.545Z,52.65
2017-07-02T13:05:28.872Z,52.75
2017-07-02T13:06:28.882Z,52.07
2017-07-02T13:07:28.886Z,53.03
2017-07-02T13:08:28.884Z,53.52
2017-07-02T13:09:30.693Z,52.65
2017-07-02T13:10:28.894Z,52.43
2017-07-02T13:11:28.903Z,51.95
2017-07-02T13:12:28.903Z,53.13
2017-07-02T13:13:28.906Z,53.49
2017-07-02T13:14:28.910Z,53.69
2017-07-02T13:15:29.208Z,54.27
2017-07-02T13:16:28.923Z,54.55
2017-07-02T13:17:28.927Z,55.04
2017-07-02T13:18:28.951Z,55.07
2017-07-02T13:19:28.644Z,54
2017-07-02T13:20:28.948Z,54.19
2017-07-02T13:21:28.948Z,53.03
2017-07-02T13:22:28.951Z,53.71
2017-07-02T13:23:28.958Z,53.23
2017-07-02T13:24:29.061Z,53.71
2017-07-02T13:25:28.968Z,53.52
2017-07-02T13:26:28.971Z,53.49
2017-07-02T13:27:28.659Z,53.88
2017-07-02T13:28:28.981Z,53.47
2017-07-02T13:29:28.982Z,53.95
2017-07-02T13:30:28.990Z,55.1
2017-07-02T13:31:29.013Z,54.31
2017-07-02T13:32:28.997Z,54.33
2017-07-02T13:33:29.001Z,54.6
2017-07-02T13:34:29.022Z,55.08
2017-07-02T13:35:29.018Z,54.98
2017-07-02T13:36:29.056Z,55.27
2017-07-02T13:37:29.024Z,55.56
2017-07-02T13:38:29.073Z,56.24
2017-07-02T13:39:30.099Z,55.85
2017-07-02T13:40:29.041Z,56.69
2017-07-02T13:41:29.046Z,56.72
2017-07-02T13:42:29.044Z,56.81
2017-07-02T13:43:29.049Z,56.91
2017-07-02T13:44:29.053Z,57.07
2017-07-02T13:45:29.102Z,57.46
2017-07-02T13:46:29.060Z,57.56
2017-07-02T13:47:29.073Z,57.75
2017-07-02T13:48:28.752Z,57.56
2017-07-02T13:49:29.079Z,57.37
2017-07-02T13:50:29.382Z,57.75
2017-07-02T13:51:29.077Z,57.94
2017-07-02T13:52:29.092Z,58.04
2017-07-02T13:53:29.091Z,58.14
2017-07-02T13:54:29.125Z,58.14
2017-07-02T13:55:29.332Z,58.33
2017-07-02T13:56:29.144Z,58.3
2017-07-02T13:57:28.806Z,58.52
2017-07-02T13:58:29.108Z,58.42
2017-07-02T13:59:29.144Z,58.42
2017-07-02T14:00:28.890Z,58.23
2017-07-02T14:01:29.171Z,58.52
2017-07-02T14:02:28.867Z,58.23
2017-07-02T14:03:29.202Z,58.72
2017-07-02T14:04:29.208Z,59.1
2017-07-02T14:05:29.235Z,59
2017-07-02T14:06:29.145Z,59.65
2017-07-02T14:07:29.195Z,59.75
2017-07-02T14:08:29.234Z,60.13
2017-07-02T14:09:29.233Z,60.61
2017-07-02T14:10:29.243Z,60.71
2017-07-02T14:11:29.271Z,60.52
2017-07-02T14:12:29.201Z,61
2017-07-02T14:13:29.191Z,60.71
2017-07-02T14:14:29.217Z,61
2017-07-02T14:15:29.218Z,60.9
2017-07-02T14:16:29.553Z,61
2017-07-02T14:17:29.203Z,60.9
2017-07-02T14:18:29.256Z,61.48
2017-07-02T14:19:29.249Z,61.38
2017-07-02T14:20:30.823Z,61.77
2017-07-02T14:21:29.246Z,61.58
2017-07-02T14:22:29.388Z,61.96
2017-07-02T14:23:29.318Z,61.96
2017-07-02T14:24:29.286Z,62.15
2017-07-02T14:25:29.789Z,60.93
2017-07-02T14:26:29.278Z,61.22
2017-07-02T14:27:29.242Z,61.03
2017-07-02T14:28:29.231Z,60.93
2017-07-02T14:29:29.231Z,60.93
2017-07-02T14:30:28.944Z,61.03
2017-07-02T14:31:29.234Z,60.74
2017-07-02T14:32:29.254Z,60.64
2017-07-02T14:33:29.246Z,60.48
2017-07-02T14:34:29.253Z,60.38
2017-07-02T14:35:29.262Z,60.38
2017-07-02T14:36:29.258Z,60.58
2017-07-02T14:37:29.266Z,60.86
2017-07-02T14:38:29.347Z,61.06
2017-07-02T14:39:29.273Z,61.13
2017-07-02T14:40:29.325Z,60.93
2017-07-02T14:41:28.974Z,60.93
2017-07-02T14:42:29.049Z,61.22
2017-07-02T14:43:29.293Z,61.32
2017-07-02T14:44:29.304Z,61.03
2017-07-02T14:45:29.357Z,61.13
2017-07-02T14:46:29.363Z,60.9
2017-07-02T14:47:28.994Z,61.19
2017-07-02T14:48:29.307Z,61.38
2017-07-02T14:49:29.314Z,60.9
2017-07-02T14:50:29.702Z,61.38
2017-07-02T14:51:29.008Z,61.1
2017-07-02T14:52:29.324Z,61.58
2017-07-02T14:53:29.343Z,61.29
2017-07-02T14:54:29.334Z,61.29
2017-07-02T14:55:29.078Z,61.48
2017-07-02T14:56:29.040Z,61.38
2017-07-02T14:57:29.351Z,61.38
2017-07-02T14:58:29.351Z,61.38
2017-07-02T14:59:29.040Z,61.38
2017-07-02T15:00:29.051Z,61.77
2017-07-02T15:01:29.362Z,62.15
2017-07-02T15:02:29.361Z,62.15
2017-07-02T15:03:29.367Z,61.87
2017-07-02T15:04:29.376Z,62.25
2017-07-02T15:05:29.372Z,61.58
2017-07-02T15:06:29.379Z,61.58
2017-07-02T15:07:29.381Z,61.48
2017-07-02T15:08:29.383Z,61.58
2017-07-02T15:09:29.389Z,61.87
2017-07-02T15:10:29.078Z,61.68
2017-07-02T15:11:30.738Z,61.48
2017-07-02T15:12:29.419Z,61.58
2017-07-02T15:13:29.401Z,61.48
2017-07-02T15:14:29.409Z,61.87
2017-07-02T15:15:29.460Z,61.29
2017-07-02T15:16:29.414Z,61.38
2017-07-02T15:17:29.423Z,62.25
2017-07-02T15:18:29.425Z,61.96
2017-07-02T15:19:29.428Z,62.06
2017-07-02T15:20:29.439Z,62.51
2017-07-02T15:21:29.438Z,62.32
2017-07-02T15:22:29.446Z,63.28
2017-07-02T15:23:29.444Z,63.38
2017-07-02T15:24:29.451Z,63.28
2017-07-02T15:25:29.454Z,62.51
2017-07-02T15:26:29.513Z,63.38
2017-07-02T15:27:29.469Z,63.38
2017-07-02T15:28:29.466Z,63.38
2017-07-02T15:29:29.466Z,63.38
2017-07-02T15:30:29.470Z,62.8
2017-07-02T15:31:29.170Z,62.41
2017-07-02T15:32:29.489Z,62.9
2017-07-02T15:33:29.550Z,62.99
2017-07-02T15:34:29.494Z,63.28
2017-07-02T15:35:29.488Z,63.76
2017-07-02T15:36:29.498Z,63.67
2017-07-02T15:37:29.495Z,63.57
2017-07-02T15:38:29.499Z,64.02
2017-07-02T15:39:29.503Z,64.21
2017-07-02T15:40:29.744Z,64.69
2017-07-02T15:41:32.310Z,65.17
2017-07-02T15:42:29.514Z,64.98
2017-07-02T15:43:29.213Z,64.89
2017-07-02T15:44:29.225Z,64.69
2017-07-02T15:45:29.521Z,64.4
2017-07-02T15:46:29.540Z,63.82
2017-07-02T15:47:29.541Z,64.02
2017-07-02T15:48:29.560Z,63.64
2017-07-02T15:49:29.546Z,62.77
2017-07-02T15:50:29.534Z,63.15
2017-07-02T15:51:29.544Z,62.77
2017-07-02T15:52:29.262Z,63.64
2017-07-02T15:53:29.260Z,63.92
2017-07-02T15:54:29.592Z,63.54
2017-07-02T15:55:29.555Z,63.73
2017-07-02T15:56:29.244Z,63.82
2017-07-02T15:57:29.563Z,63.54
2017-07-02T15:58:29.570Z,62.99
2017-07-02T15:59:29.257Z,62.7
2017-07-02T16:00:29.570Z,61.55
2017-07-02T16:01:29.578Z,61.55
2017-07-02T16:02:29.600Z,62
2017-07-02T16:03:29.583Z,62.67
2017-07-02T16:04:29.602Z,62.29
2017-07-02T16:05:29.590Z,62.96
2017-07-02T16:06:29.594Z,62.38
2017-07-02T16:07:29.604Z,62.38
2017-07-02T16:08:29.607Z,62.57
2017-07-02T16:09:29.611Z,62.57
2017-07-02T16:10:29.603Z,62.77
2017-07-02T16:11:29.613Z,62.57
2017-07-02T16:12:29.630Z,62.87
2017-07-02T16:13:29.621Z,62.67
2017-07-02T16:14:29.622Z,63.15
2017-07-02T16:15:29.630Z,63.25
2017-07-02T16:16:29.627Z,63.73
2017-07-02T16:17:29.635Z,63.44
2017-07-02T16:18:29.319Z,63.34
2017-07-02T16:19:29.637Z,63.15
2017-07-02T16:20:29.655Z,63.28
2017-07-02T16:21:29.650Z,63.06
2017-07-02T16:22:29.652Z,63.44
2017-07-02T16:23:29.667Z,63.44
2017-07-02T16:24:29.670Z,63.25
2017-07-02T16:25:29.659Z,63.82
2017-07-02T16:26:29.666Z,63.57
2017-07-02T16:27:29.668Z,64.02
2017-07-02T16:28:29.668Z,63.85
2017-07-02T16:29:29.670Z,64.43
2017-07-02T16:30:29.850Z,64.15
2017-07-02T16:31:29.679Z,63.47
2017-07-02T16:32:29.709Z,63.09
2017-07-02T16:33:29.688Z,62.32
2017-07-02T16:34:29.698Z,62.99
2017-07-02T16:35:29.386Z,62.9
2017-07-02T16:36:29.382Z,63.38
2017-07-02T16:37:29.703Z,63.38
2017-07-02T16:38:29.719Z,63.28
2017-07-02T16:39:29.707Z,64.34
2017-07-02T16:40:29.420Z,64.15
2017-07-02T16:41:29.717Z,63.85
2017-07-02T16:42:29.979Z,63.38
2017-07-02T16:43:29.721Z,63.85
2017-07-02T16:44:29.732Z,63.76
2017-07-02T16:45:29.730Z,63.85
2017-07-02T16:46:29.730Z,63.47
2017-07-02T16:47:29.734Z,63.28
2017-07-02T16:48:29.741Z,63.85
2017-07-02T16:49:29.743Z,64.15
2017-07-02T16:50:29.746Z,63.95
2017-07-02T16:51:29.756Z,64.43
2017-07-02T16:52:29.754Z,64.34
2017-07-02T16:53:29.757Z,64.53
2017-07-02T16:54:29.765Z,64.43
2017-07-02T16:55:29.766Z,63.95
2017-07-02T16:56:29.773Z,64.25
2017-07-02T16:57:31.627Z,64.82
2017-07-02T16:58:29.462Z,65.2
2017-07-02T16:59:29.470Z,65.01
2017-07-02T17:00:29.782Z,64.25
2017-07-02T17:01:29.472Z,65.01
2017-07-02T17:02:29.789Z,65.11
2017-07-02T17:03:29.792Z,65.01
2017-07-02T17:04:29.799Z,65.01
2017-07-02T17:05:29.811Z,65.3
2017-07-02T17:06:29.803Z,65.5
2017-07-02T17:07:29.990Z,65.11
2017-07-02T17:08:29.813Z,64.89
2017-07-02T17:09:29.601Z,63.34
2017-07-02T17:10:29.818Z,62.48
2017-07-02T17:11:29.518Z,62.87
2017-07-02T17:12:30.979Z,62
2017-07-02T17:13:29.830Z,61.9
2017-07-02T17:14:29.849Z,62.38
2017-07-02T17:15:29.844Z,62.19
2017-07-02T17:16:29.525Z,62.57
2017-07-02T17:17:29.853Z,62.67
2017-07-02T17:18:29.849Z,62.57
2017-07-02T17:19:29.853Z,62.67
2017-07-02T17:20:29.539Z,63.15
2017-07-02T17:21:29.856Z,62.96
2017-07-02T17:22:29.861Z,62.67
2017-07-02T17:23:30.438Z,62.96
2017-07-02T17:24:29.868Z,62.67
2017-07-02T17:25:29.872Z,63.06
2017-07-02T17:26:30.393Z,63.15
2017-07-02T17:27:29.879Z,63.25
2017-07-02T17:28:29.574Z,63.25
2017-07-02T17:29:29.917Z,63.54
2017-07-02T17:30:29.895Z,63.15
2017-07-02T17:31:29.893Z,63.34
2017-07-02T17:32:29.902Z,63.25
2017-07-02T17:33:29.928Z,63.64
2017-07-02T17:34:29.917Z,64.12
2017-07-02T17:35:29.920Z,63.99
2017-07-02T17:36:29.922Z,63.99
2017-07-02T17:37:29.940Z,64.47
2017-07-02T17:38:29.609Z,64.56
2017-07-02T17:39:29.920Z,64.56
2017-07-02T17:40:29.928Z,64.18
2017-07-02T17:41:29.932Z,64.28
2017-07-02T17:42:29.925Z,63.89
2017-07-02T17:43:29.933Z,63.7
2017-07-02T17:44:29.941Z,64.08
2017-07-02T17:45:29.934Z,64.08
2017-07-02T17:46:29.938Z,63.51
2017-07-02T17:47:29.637Z,63.99
2017-07-02T17:48:29.949Z,63.99
2017-07-02T17:49:29.951Z,64.28
2017-07-02T17:50:29.953Z,63.79
2017-07-02T17:51:29.958Z,63.44
2017-07-02T17:52:29.954Z,63.79
2017-07-02T17:53:29.962Z,63.89
2017-07-02T17:54:29.659Z,64.08
2017-07-02T17:55:29.987Z,64.08
2017-07-02T17:56:30.022Z,63.79
2017-07-02T17:57:29.666Z,64.37
2017-07-02T17:58:30.339Z,64.56
2017-07-02T17:59:29.992Z,64.47
2017-07-02T18:00:29.980Z,64.76
2017-07-02T18:01:29.989Z,64.76
2017-07-02T18:02:29.995Z,65.14
2017-07-02T18:03:29.996Z,65.53
2017-07-02T18:04:29.998Z,65.63
2017-07-02T18:05:29.998Z,65.63
2017-07-02T18:06:30.022Z,65.43
2017-07-02T18:07:30.027Z,65.63
2017-07-02T18:08:30.040Z,65.43
2017-07-02T18:09:30.039Z,65.72
2017-07-02T18:10:30.043Z,65.63
2017-07-02T18:11:30.040Z,65.81
2017-07-02T18:12:30.024Z,65.81
2017-07-02T18:13:30.372Z,65.63
2017-07-02T18:14:30.039Z,65.53
2017-07-02T18:15:30.146Z,65.14
2017-07-02T18:16:30.048Z,64.37
2017-07-02T18:17:30.050Z,64.18
2017-07-02T18:18:30.054Z,64.86
2017-07-02T18:19:30.056Z,64.86
2017-07-02T18:20:30.050Z,65.14
2017-07-02T18:21:30.066Z,65.24
2017-07-02T18:22:30.052Z,64.86
2017-07-02T18:23:29.740Z,65.53
2017-07-02T18:24:30.118Z,65.63
2017-07-02T18:25:30.065Z,65.3
2017-07-02T18:26:30.066Z,65.72
2017-07-02T18:27:29.749Z,65.69
2017-07-02T18:28:30.952Z,65.97
2017-07-02T18:29:29.761Z,66.17
2017-07-02T18:30:30.091Z,66.07
2017-07-02T18:31:30.074Z,66.07
2017-07-02T18:32:29.763Z,66.65
2017-07-02T18:33:30.080Z,66.65
2017-07-02T18:34:30.085Z,66.84
2017-07-02T18:35:30.103Z,67.13
2017-07-02T18:36:30.094Z,67.32
2017-07-02T18:37:30.111Z,67.99
2017-07-02T18:38:30.144Z,67.99
2017-07-02T18:39:29.785Z,67.71
2017-07-02T18:40:30.124Z,67.9
2017-07-02T18:41:30.148Z,68.35
2017-07-02T18:42:30.174Z,68.63
2017-07-02T18:43:30.124Z,68.35
2017-07-02T18:44:30.129Z,68.73
2017-07-02T18:45:30.112Z,68.35
2017-07-02T18:46:30.125Z,68.44
2017-07-02T18:47:30.138Z,69.02
2017-07-02T18:48:30.128Z,68.63
2017-07-02T18:49:30.146Z,68.73
2017-07-02T18:50:30.532Z,68.63
2017-07-02T18:51:30.129Z,68.92
2017-07-02T18:52:29.817Z,68.83
2017-07-02T18:53:29.818Z,69.31
2017-07-02T18:54:30.144Z,69.4
2017-07-02T18:55:30.135Z,69.69
2017-07-02T18:56:30.141Z,69.69
2017-07-02T18:57:30.138Z,69.6
2017-07-02T18:58:30.163Z,69.6
2017-07-02T18:59:29.835Z,69.6
2017-07-02T19:00:30.171Z,69.98
2017-07-02T19:01:30.150Z,69.4
2017-07-02T19:02:30.157Z,70.07
2017-07-02T19:03:30.160Z,69.79
2017-07-02T19:04:30.159Z,69.56
2017-07-02T19:05:29.846Z,70.17
2017-07-02T19:06:30.178Z,69.98
2017-07-02T19:07:30.243Z,70.94
2017-07-02T19:08:30.230Z,70.75
2017-07-02T19:09:30.267Z,71.29
2017-07-02T19:10:30.198Z,71.48
2017-07-02T19:11:30.215Z,72.73
2017-07-02T19:12:30.215Z,73.31
2017-07-02T19:13:30.189Z,73.79
2017-07-02T19:14:30.200Z,74.08
2017-07-02T19:15:30.224Z,74.9
2017-07-02T19:16:30.215Z,75
2017-07-02T19:17:30.253Z,75
2017-07-02T19:18:29.879Z,75
2017-07-02T19:19:29.917Z,75.67
2017-07-02T19:20:30.206Z,75.38
2017-07-02T19:21:30.278Z,75.77
2017-07-02T19:22:30.272Z,75.48
2017-07-02T19:23:30.227Z,75.77
2017-07-02T19:24:30.217Z,75.77
2017-07-02T19:25:29.900Z,76.06
2017-07-02T19:26:30.220Z,76.15
2017-07-02T19:27:30.261Z,77.01
2017-07-02T19:28:29.918Z,77.21
2017-07-02T19:29:30.221Z,77.4
2017-07-02T19:30:30.228Z,77.78
2017-07-02T19:31:30.237Z,78.08
2017-07-02T19:32:30.227Z,78.08
2017-07-02T19:33:30.230Z,78.17
2017-07-02T19:34:29.918Z,78.65
2017-07-02T19:35:29.921Z,78.75
2017-07-02T19:36:29.923Z,78.9
2017-07-02T19:37:30.278Z,79.19
2017-07-02T19:38:30.243Z,79.09
2017-07-02T19:39:29.929Z,80.15
2017-07-02T19:40:30.238Z,80.82
2017-07-02T19:41:30.241Z,81.3
2017-07-02T19:42:30.249Z,82.45
2017-07-02T19:43:30.280Z,84.37
2017-07-02T19:44:31.452Z,84.18
2017-07-02T19:45:30.254Z,85.52
2017-07-02T19:46:30.293Z,86.72
2017-07-02T19:47:30.255Z,86.82
2017-07-02T19:48:30.290Z,88.17
2017-07-02T19:49:30.041Z,88.65
2017-07-02T19:50:29.959Z,88.74
2017-07-02T19:51:30.265Z,89.12
2017-07-02T19:52:30.298Z,89.79
2017-07-02T19:53:30.291Z,90.37
2017-07-02T19:54:29.966Z,89.89
2017-07-02T19:55:30.272Z,90.52
2017-07-02T19:56:30.271Z,91.77
2017-07-02T19:57:30.268Z,92.15
2017-07-02T19:58:30.270Z,93.4
2017-07-02T19:59:30.831Z,94.26
2017-07-02T20:00:30.288Z,94.35
